Courage — WDC6907 — position and weather

sailwx.info

Track history (hours):
 
Tides and Currents Weather Stations Pressure Air Temp Water Temp Dewpoint Dewpoint Depression Visibility Wind Speed Wind Dir Waves Ship Positions

Courage

Owner: Crowley Technical Management, Inc, Jacksonville, FL. More information available from US FCC via Universal Licensing System and Coast Guard Vessel Documentation Center.

Last reported at 2014-Sep-29 20:33 UTC. Time now 2014-Oct-02 08:27 UTC.
Position N 50°26' W 001°20'.

Type: Ship. MMSI: 367063050.

Date/timePositionNaut miles runAvg speedWind from/ knotsBaromVisibWave heightAir tempDewpointWater temp
2014-Sep-29 20:33N 50°26' W 001°20'1414.1
2014-Sep-29 19:33N 50°33' W 001°00'1110.9
2014-Sep-29 18:33N 50°44' W 001°03'1211.9
2014-Sep-29 17:33N 50°50' W 001°19'5 4.6
2014-Sep-29 16:33N 50°53' W 001°24'0 0.0
2014-Sep-29 15:33N 50°53' W 001°24'0 0.0
2014-Sep-29 14:33N 50°53' W 001°24'0 0.0
2014-Sep-29 13:32N 50°53' W 001°24'0 0.0
2014-Sep-29 12:33N 50°53' W 001°24'0 0.0
2014-Sep-29 11:33N 50°53' W 001°24'0 0.0
2014-Sep-29 10:33N 50°53' W 001°24'0 0.0
2014-Sep-29 09:33N 50°53' W 001°24'0 0.0
2014-Sep-29 08:33N 50°53' W 001°24'0 0.0
2014-Sep-29 07:33N 50°53' W 001°24'0 0.0
2014-Sep-29 06:33N 50°53' W 001°24'0 0.0
2014-Sep-29 05:33N 50°53' W 001°24'0 0.0
2014-Sep-29 04:33N 50°53' W 001°24'0 0.0
2014-Sep-29 03:33N 50°53' W 001°24'0 0.0
2014-Sep-29 02:33N 50°53' W 001°24'3 3.5
2014-Sep-29 01:33N 50°51' W 001°20'9 8.6
2014-Sep-29 00:33N 50°46' W 001°09'1110.7
2014-Sep-28 23:33N 50°39' W 000°55'1211.7
2014-Sep-28 22:33N 50°28' W 000°56'9 8.5
2014-Sep-28 21:33N 50°26' W 000°43'1211.5
2014-Sep-28 20:33N 50°29' W 000°25'1313.1
2014-Sep-28 19:33N 50°32' W 000°05'1515.1
2014-Sep-28 18:33N 50°35' E 000°18'1616.1
2014-Sep-28 17:33N 50°41' E 000°42'1616.1
2014-Sep-28 16:33N 50°50' E 001°03'1514.5
2014-Sep-28 15:33N 50°60' E 001°20'1111.0
2014-Sep-28 14:33N 51°07' E 001°33'1111.2
2014-Sep-28 13:34N 51°14' E 001°46'1212.3
2014-Sep-28 12:33N 51°24' E 001°59'1313.2
2014-Sep-28 11:33N 51°21' E 002°19'1514.7
2014-Sep-28 10:33N 51°23' E 002°43'1615.5
2014-Sep-28 09:31N 51°24' E 003°08'1516.1
2014-Sep-28 08:33N 51°26' E 003°33'1414.0
2014-Sep-28 07:34N 51°22' E 003°55'1111.5
2014-Sep-28 06:34N 51°23' E 004°13'7 7.1
2014-Sep-28 05:34N 51°16' E 004°17'1 1.3
2014-Sep-28 04:33N 51°16' E 004°15'0 0.4
2014-Sep-28 03:33N 51°16' E 004°14'0 0.0
2014-Sep-28 02:30N 51°16' E 004°14'0 0.0
2014-Sep-28 01:33N 51°16' E 004°14'0 0.0
2014-Sep-28 00:34N 51°16' E 004°14'0 0.0
2014-Sep-27 23:33N 51°16' E 004°14'0 0.0
2014-Sep-27 22:34N 51°16' E 004°14'0 0.0
2014-Sep-27 21:33N 51°16' E 004°14'0 0.0
2014-Sep-27 20:34N 51°16' E 004°14'0 0.0
2014-Sep-27 19:33N 51°16' E 004°14'0 0.0
2014-Sep-27 18:33N 51°16' E 004°14'0 0.0
2014-Sep-27 17:34N 51°16' E 004°14'0 0.0
2014-Sep-27 16:33N 51°16' E 004°14'0 0.0
2014-Sep-27 15:33N 51°16' E 004°14'0 0.0
2014-Sep-27 14:33N 51°16' E 004°14'0 0.0
2014-Sep-27 13:33N 51°16' E 004°14'0 0.0
2014-Sep-27 12:34N 51°16' E 004°14'0 0.0
2014-Sep-27 11:34N 51°16' E 004°14'0 0.0
2014-Sep-27 10:34N 51°16' E 004°14'0 0.0
2014-Sep-27 09:33N 51°16' E 004°14'0 0.0
2014-Sep-27 08:33N 51°16' E 004°14'0 0.0
2014-Sep-27 07:34N 51°16' E 004°14'0 0.0
2014-Sep-27 06:33N 51°16' E 004°14'0 0.0
2014-Sep-27 05:34N 51°16' E 004°14'0 0.0
2014-Sep-27 04:34N 51°16' E 004°14'0 0.0
2014-Sep-27 03:34N 51°16' E 004°14'0 0.0
2014-Sep-27 02:33N 51°16' E 004°14'0 0.0
2014-Sep-27 01:33N 51°16' E 004°14'0 0.0
2014-Sep-27 00:33N 51°16' E 004°14'0 0.0
2014-Sep-26 23:34N 51°16' E 004°14'0 0.0
2014-Sep-26 22:34N 51°16' E 004°14'0 0.0
2014-Sep-26 21:33N 51°16' E 004°14'0 0.0
2014-Sep-26 20:34N 51°16' E 004°14'0 0.0
2014-Sep-26 19:33N 51°16' E 004°14'0 0.0
2014-Sep-26 18:34N 51°16' E 004°14'0 0.0
2014-Sep-26 17:34N 51°16' E 004°14'0 0.0
2014-Sep-26 16:34N 51°16' E 004°14'0 0.0
2014-Sep-26 15:34N 51°16' E 004°14'0 0.0
2014-Sep-26 14:33N 51°16' E 004°14'0 0.0
2014-Sep-26 13:34N 51°16' E 004°14'0 0.0
2014-Sep-26 12:33N 51°16' E 004°14'0 0.0
2014-Sep-26 11:33N 51°16' E 004°14'0 0.0
2014-Sep-26 10:34N 51°16' E 004°14'0 0.0
2014-Sep-26 09:33N 51°16' E 004°14'0 0.0
2014-Sep-26 08:33N 51°16' E 004°14'0 0.0
2014-Sep-26 07:33N 51°16' E 004°14'0 0.0
2014-Sep-26 06:33N 51°16' E 004°14'0 0.0
2014-Sep-26 05:33N 51°16' E 004°14'0 0.0
2014-Sep-26 04:34N 51°16' E 004°14'0 0.0
2014-Sep-26 03:33N 51°16' E 004°14'0 0.0
2014-Sep-26 02:33N 51°16' E 004°14'0 0.0
2014-Sep-26 01:33N 51°16' E 004°14'1 1.4
2014-Sep-26 00:34N 51°16' E 004°17'0 0.3
2014-Sep-25 23:34N 51°16' E 004°17'6 5.7
2014-Sep-25 22:33N 51°21' E 004°14'1010.3
2014-Sep-25 21:33N 51°26' E 003°60'1110.9
2014-Sep-25 20:33N 51°24' E 003°43'8 8.3
2014-Sep-25 19:33N 51°25' E 003°29'1514.9
2014-Sep-25 18:33N 51°24' E 003°06'1211.5
2014-Sep-25 17:29N 51°36' E 003°10'1111.6
2014-Sep-25 16:31N 51°47' E 003°14'1010.9
2014-Sep-25 15:34N 51°57' E 003°19'10913.6
2014-Sep-25 07:33N 53°31' E 004°49'1515.2
2014-Sep-25 06:33N 53°35' E 005°13'1515.3
2014-Sep-25 05:33N 53°40' E 005°38'1616.1
2014-Sep-25 04:33N 53°45' E 006°03'5517.5
2014-Sep-25 01:24N 53°59' E 007°34'1312.9
2014-Sep-25 00:25N 53°52' E 007°52'1113.3
2014-Sep-24 23:33N 53°47' E 008°09'1414.4
2014-Sep-24 22:33N 53°38' E 008°28'5 4.7
2014-Sep-24 21:33N 53°34' E 008°33'1 0.5
2014-Sep-24 20:33N 53°35' E 008°33'0 0.0
2014-Sep-24 19:34N 53°35' E 008°33'0 0.0
2014-Sep-24 18:34N 53°35' E 008°33'0 0.0
2014-Sep-24 17:33N 53°35' E 008°33'0 0.0
2014-Sep-24 16:33N 53°35' E 008°33'0 0.0
2014-Sep-24 15:33N 53°35' E 008°33'0 0.0
2014-Sep-24 14:33N 53°35' E 008°33'0 0.0
2014-Sep-24 13:34N 53°35' E 008°33'0 0.0
2014-Sep-24 12:33N 53°35' E 008°33'0 0.0
2014-Sep-24 11:33N 53°35' E 008°33'0 0.0
2014-Sep-24 10:33N 53°35' E 008°33'0 0.0
2014-Sep-24 09:33N 53°35' E 008°33'0 0.0
2014-Sep-24 08:33N 53°35' E 008°33'0 0.0
2014-Sep-24 07:34N 53°35' E 008°33'0 0.0
2014-Sep-24 06:33N 53°35' E 008°33'0 0.0
2014-Sep-24 05:33N 53°35' E 008°33'0 0.0
2014-Sep-24 04:33N 53°35' E 008°33'0 0.0
2014-Sep-24 03:34N 53°35' E 008°33'0 0.0
2014-Sep-24 02:33N 53°35' E 008°33'0 0.0
2014-Sep-24 01:33N 53°35' E 008°33'0 0.0
2014-Sep-24 00:33N 53°35' E 008°33'0 0.0
2014-Sep-23 23:33N 53°35' E 008°33'0 0.0
2014-Sep-23 22:34N 53°35' E 008°33'1 1.0
2014-Sep-23 21:34N 53°34' E 008°33'0 0.4
2014-Sep-23 20:34N 53°34' E 008°34'0 0.0
2014-Sep-23 19:34N 53°34' E 008°34'0 0.0
2014-Sep-23 18:33N 53°34' E 008°34'0 0.0
2014-Sep-23 17:33N 53°34' E 008°34'0 0.0
2014-Sep-23 16:34N 53°34' E 008°34'0 0.0
2014-Sep-23 15:33N 53°34' E 008°34'0 0.0
2014-Sep-23 14:33N 53°34' E 008°34'0 0.0
2014-Sep-23 13:33N 53°34' E 008°34'0 0.0
2014-Sep-23 12:33N 53°34' E 008°34'0 0.0
2014-Sep-23 11:33N 53°34' E 008°34'0 0.0
2014-Sep-23 10:34N 53°34' E 008°34'0 0.0
2014-Sep-23 09:33N 53°34' E 008°34'0 0.0
2014-Sep-23 08:33N 53°34' E 008°34'0 0.0
2014-Sep-23 07:33N 53°34' E 008°34'0 0.0
2014-Sep-23 06:33N 53°34' E 008°34'0 0.0
2014-Sep-23 05:33N 53°34' E 008°34'0 0.0
2014-Sep-23 04:33N 53°34' E 008°34'0 0.0
2014-Sep-23 03:33N 53°34' E 008°34'1 0.6
2014-Sep-23 02:33N 53°34' E 008°33'3 2.9
2014-Sep-23 01:34N 53°36' E 008°30'1111.2
2014-Sep-23 00:33N 53°44' E 008°15'1212.4
2014-Sep-22 23:33N 53°51' E 007°59'5813.4
2014-Sep-22 19:15N 53°44' E 006°22'1014.7
2014-Sep-22 18:33N 53°41' E 006°05'1312.9
2014-Sep-22 17:33N 53°38' E 005°44'1312.9
2014-Sep-22 16:33N 53°34' E 005°23'1514.7
2014-Sep-22 15:33N 53°29' E 005°00'1515.2
2014-Sep-22 14:33N 53°21' E 004°39'1815.7
2014-Sep-22 13:25N 53°05' E 004°26'1415.4
2014-Sep-22 12:33N 52°53' E 004°15'1414.6
2014-Sep-22 11:33N 52°41' E 004°01'1414.3
2014-Sep-22 10:33N 52°31' E 003°44'7314.0
2014-Sep-22 05:20N 51°37' E 002°24'1215.0
2014-Sep-22 04:32N 51°28' E 002°11'1514.8
2014-Sep-22 03:33N 51°14' E 002°04'1514.6
2014-Sep-22 02:33N 51°06' E 001°45'1514.9
2014-Sep-22 01:34N 50°56' E 001°28'1615.0
2014-Sep-22 00:31N 50°41' E 001°18'1515.2
2014-Sep-21 23:31N 50°32' E 000°59'1415.0
2014-Sep-21 22:33N 50°27' E 000°38'1514.8
2014-Sep-21 21:33N 50°22' E 000°16'  
Track history (hours):
 
Tides and Currents Weather Stations Pressure Air Temp Water Temp Dewpoint Dewpoint Depression Visibility Wind Speed Wind Dir Waves Ship Positions

Courage

Owner: Crowley Technical Management, Inc, Jacksonville, FL. More information available from US FCC via Universal Licensing System and Coast Guard Vessel Documentation Center.

Last reported at 2014-Sep-29 20:33 UTC. Time now 2014-Oct-02 08:27 UTC.
Position N 50°26' W 001°20'.

Type: Ship. MMSI: 367063050.

Date/timePositionNaut miles runAvg speedWind from/ knotsBaromVisibWave heightAir tempDewpointWater temp
2014-Sep-29 20:33N 50°26' W 001°20'1414.1
2014-Sep-29 19:33N 50°33' W 001°00'1110.9
2014-Sep-29 18:33N 50°44' W 001°03'1211.9
2014-Sep-29 17:33N 50°50' W 001°19'5 4.6
2014-Sep-29 16:33N 50°53' W 001°24'0 0.0
2014-Sep-29 15:33N 50°53' W 001°24'0 0.0
2014-Sep-29 14:33N 50°53' W 001°24'0 0.0
2014-Sep-29 13:32N 50°53' W 001°24'0 0.0
2014-Sep-29 12:33N 50°53' W 001°24'0 0.0
2014-Sep-29 11:33N 50°53' W 001°24'0 0.0
2014-Sep-29 10:33N 50°53' W 001°24'0 0.0
2014-Sep-29 09:33N 50°53' W 001°24'0 0.0
2014-Sep-29 08:33N 50°53' W 001°24'0 0.0
2014-Sep-29 07:33N 50°53' W 001°24'0 0.0
2014-Sep-29 06:33N 50°53' W 001°24'0 0.0
2014-Sep-29 05:33N 50°53' W 001°24'0 0.0
2014-Sep-29 04:33N 50°53' W 001°24'0 0.0
2014-Sep-29 03:33N 50°53' W 001°24'0 0.0
2014-Sep-29 02:33N 50°53' W 001°24'3 3.5
2014-Sep-29 01:33N 50°51' W 001°20'9 8.6
2014-Sep-29 00:33N 50°46' W 001°09'1110.7
2014-Sep-28 23:33N 50°39' W 000°55'1211.7
2014-Sep-28 22:33N 50°28' W 000°56'9 8.5
2014-Sep-28 21:33N 50°26' W 000°43'1211.5
2014-Sep-28 20:33N 50°29' W 000°25'1313.1
2014-Sep-28 19:33N 50°32' W 000°05'1515.1
2014-Sep-28 18:33N 50°35' E 000°18'1616.1
2014-Sep-28 17:33N 50°41' E 000°42'1616.1
2014-Sep-28 16:33N 50°50' E 001°03'1514.5
2014-Sep-28 15:33N 50°60' E 001°20'1111.0
2014-Sep-28 14:33N 51°07' E 001°33'1111.2
2014-Sep-28 13:34N 51°14' E 001°46'1212.3
2014-Sep-28 12:33N 51°24' E 001°59'1313.2
2014-Sep-28 11:33N 51°21' E 002°19'1514.7
2014-Sep-28 10:33N 51°23' E 002°43'1615.5
2014-Sep-28 09:31N 51°24' E 003°08'1516.1
2014-Sep-28 08:33N 51°26' E 003°33'1414.0
2014-Sep-28 07:34N 51°22' E 003°55'1111.5
2014-Sep-28 06:34N 51°23' E 004°13'7 7.1
2014-Sep-28 05:34N 51°16' E 004°17'1 1.3
2014-Sep-28 04:33N 51°16' E 004°15'0 0.4
2014-Sep-28 03:33N 51°16' E 004°14'0 0.0
2014-Sep-28 02:30N 51°16' E 004°14'0 0.0
2014-Sep-28 01:33N 51°16' E 004°14'0 0.0
2014-Sep-28 00:34N 51°16' E 004°14'0 0.0
2014-Sep-27 23:33N 51°16' E 004°14'0 0.0
2014-Sep-27 22:34N 51°16' E 004°14'0 0.0
2014-Sep-27 21:33N 51°16' E 004°14'0 0.0
2014-Sep-27 20:34N 51°16' E 004°14'0 0.0
2014-Sep-27 19:33N 51°16' E 004°14'0 0.0
2014-Sep-27 18:33N 51°16' E 004°14'0 0.0
2014-Sep-27 17:34N 51°16' E 004°14'0 0.0
2014-Sep-27 16:33N 51°16' E 004°14'0 0.0
2014-Sep-27 15:33N 51°16' E 004°14'0 0.0
2014-Sep-27 14:33N 51°16' E 004°14'0 0.0
2014-Sep-27 13:33N 51°16' E 004°14'0 0.0
2014-Sep-27 12:34N 51°16' E 004°14'0 0.0
2014-Sep-27 11:34N 51°16' E 004°14'0 0.0
2014-Sep-27 10:34N 51°16' E 004°14'0 0.0
2014-Sep-27 09:33N 51°16' E 004°14'0 0.0
2014-Sep-27 08:33N 51°16' E 004°14'0 0.0
2014-Sep-27 07:34N 51°16' E 004°14'0 0.0
2014-Sep-27 06:33N 51°16' E 004°14'0 0.0
2014-Sep-27 05:34N 51°16' E 004°14'0 0.0
2014-Sep-27 04:34N 51°16' E 004°14'0 0.0
2014-Sep-27 03:34N 51°16' E 004°14'0 0.0
2014-Sep-27 02:33N 51°16' E 004°14'0 0.0
2014-Sep-27 01:33N 51°16' E 004°14'0 0.0
2014-Sep-27 00:33N 51°16' E 004°14'0 0.0
2014-Sep-26 23:34N 51°16' E 004°14'0 0.0
2014-Sep-26 22:34N 51°16' E 004°14'0 0.0
2014-Sep-26 21:33N 51°16' E 004°14'0 0.0
2014-Sep-26 20:34N 51°16' E 004°14'0 0.0
2014-Sep-26 19:33N 51°16' E 004°14'0 0.0
2014-Sep-26 18:34N 51°16' E 004°14'0 0.0
2014-Sep-26 17:34N 51°16' E 004°14'0 0.0
2014-Sep-26 16:34N 51°16' E 004°14'0 0.0
2014-Sep-26 15:34N 51°16' E 004°14'0 0.0
2014-Sep-26 14:33N 51°16' E 004°14'0 0.0
2014-Sep-26 13:34N 51°16' E 004°14'0 0.0
2014-Sep-26 12:33N 51°16' E 004°14'0 0.0
2014-Sep-26 11:33N 51°16' E 004°14'0 0.0
2014-Sep-26 10:34N 51°16' E 004°14'0 0.0
2014-Sep-26 09:33N 51°16' E 004°14'0 0.0
2014-Sep-26 08:33N 51°16' E 004°14'0 0.0
2014-Sep-26 07:33N 51°16' E 004°14'0 0.0
2014-Sep-26 06:33N 51°16' E 004°14'0 0.0
2014-Sep-26 05:33N 51°16' E 004°14'0 0.0
2014-Sep-26 04:34N 51°16' E 004°14'0 0.0
2014-Sep-26 03:33N 51°16' E 004°14'0 0.0
2014-Sep-26 02:33N 51°16' E 004°14'0 0.0
2014-Sep-26 01:33N 51°16' E 004°14'1 1.4
2014-Sep-26 00:34N 51°16' E 004°17'0 0.3
2014-Sep-25 23:34N 51°16' E 004°17'6 5.7
2014-Sep-25 22:33N 51°21' E 004°14'1010.3
2014-Sep-25 21:33N 51°26' E 003°60'1110.9
2014-Sep-25 20:33N 51°24' E 003°43'8 8.3
2014-Sep-25 19:33N 51°25' E 003°29'1514.9
2014-Sep-25 18:33N 51°24' E 003°06'1211.5
2014-Sep-25 17:29N 51°36' E 003°10'1111.6
2014-Sep-25 16:31N 51°47' E 003°14'1010.9
2014-Sep-25 15:34N 51°57' E 003°19'10913.6
2014-Sep-25 07:33N 53°31' E 004°49'1515.2
2014-Sep-25 06:33N 53°35' E 005°13'1515.3
2014-Sep-25 05:33N 53°40' E 005°38'1616.1
2014-Sep-25 04:33N 53°45' E 006°03'5517.5
2014-Sep-25 01:24N 53°59' E 007°34'1312.9
2014-Sep-25 00:25N 53°52' E 007°52'1113.3
2014-Sep-24 23:33N 53°47' E 008°09'1414.4
2014-Sep-24 22:33N 53°38' E 008°28'5 4.7
2014-Sep-24 21:33N 53°34' E 008°33'1 0.5
2014-Sep-24 20:33N 53°35' E 008°33'0 0.0
2014-Sep-24 19:34N 53°35' E 008°33'0 0.0
2014-Sep-24 18:34N 53°35' E 008°33'0 0.0
2014-Sep-24 17:33N 53°35' E 008°33'0 0.0
2014-Sep-24 16:33N 53°35' E 008°33'0 0.0
2014-Sep-24 15:33N 53°35' E 008°33'0 0.0
2014-Sep-24 14:33N 53°35' E 008°33'0 0.0
2014-Sep-24 13:34N 53°35' E 008°33'0 0.0
2014-Sep-24 12:33N 53°35' E 008°33'0 0.0
2014-Sep-24 11:33N 53°35' E 008°33'0 0.0
2014-Sep-24 10:33N 53°35' E 008°33'0 0.0
2014-Sep-24 09:33N 53°35' E 008°33'0 0.0
2014-Sep-24 08:33N 53°35' E 008°33'0 0.0
2014-Sep-24 07:34N 53°35' E 008°33'0 0.0
2014-Sep-24 06:33N 53°35' E 008°33'0 0.0
2014-Sep-24 05:33N 53°35' E 008°33'0 0.0
2014-Sep-24 04:33N 53°35' E 008°33'0 0.0
2014-Sep-24 03:34N 53°35' E 008°33'0 0.0
2014-Sep-24 02:33N 53°35' E 008°33'0 0.0
2014-Sep-24 01:33N 53°35' E 008°33'0 0.0
2014-Sep-24 00:33N 53°35' E 008°33'0 0.0
2014-Sep-23 23:33N 53°35' E 008°33'0 0.0
2014-Sep-23 22:34N 53°35' E 008°33'1 1.0
2014-Sep-23 21:34N 53°34' E 008°33'0 0.4
2014-Sep-23 20:34N 53°34' E 008°34'0 0.0
2014-Sep-23 19:34N 53°34' E 008°34'0 0.0
2014-Sep-23 18:33N 53°34' E 008°34'0 0.0
2014-Sep-23 17:33N 53°34' E 008°34'0 0.0
2014-Sep-23 16:34N 53°34' E 008°34'0 0.0
2014-Sep-23 15:33N 53°34' E 008°34'0 0.0
2014-Sep-23 14:33N 53°34' E 008°34'0 0.0
2014-Sep-23 13:33N 53°34' E 008°34'0 0.0
2014-Sep-23 12:33N 53°34' E 008°34'0 0.0
2014-Sep-23 11:33N 53°34' E 008°34'0 0.0
2014-Sep-23 10:34N 53°34' E 008°34'0 0.0
2014-Sep-23 09:33N 53°34' E 008°34'0 0.0
2014-Sep-23 08:33N 53°34' E 008°34'0 0.0
2014-Sep-23 07:33N 53°34' E 008°34'0 0.0
2014-Sep-23 06:33N 53°34' E 008°34'0 0.0
2014-Sep-23 05:33N 53°34' E 008°34'0 0.0
2014-Sep-23 04:33N 53°34' E 008°34'0 0.0
2014-Sep-23 03:33N 53°34' E 008°34'1 0.6
2014-Sep-23 02:33N 53°34' E 008°33'3 2.9
2014-Sep-23 01:34N 53°36' E 008°30'1111.2
2014-Sep-23 00:33N 53°44' E 008°15'1212.4
2014-Sep-22 23:33N 53°51' E 007°59'5813.4
2014-Sep-22 19:15N 53°44' E 006°22'1014.7
2014-Sep-22 18:33N 53°41' E 006°05'1312.9
2014-Sep-22 17:33N 53°38' E 005°44'1312.9
2014-Sep-22 16:33N 53°34' E 005°23'1514.7
2014-Sep-22 15:33N 53°29' E 005°00'1515.2
2014-Sep-22 14:33N 53°21' E 004°39'1815.7
2014-Sep-22 13:25N 53°05' E 004°26'1415.4
2014-Sep-22 12:33N 52°53' E 004°15'1414.6
2014-Sep-22 11:33N 52°41' E 004°01'1414.3
2014-Sep-22 10:33N 52°31' E 003°44'7314.0
2014-Sep-22 05:20N 51°37' E 002°24'1215.0
2014-Sep-22 04:32N 51°28' E 002°11'1514.8
2014-Sep-22 03:33N 51°14' E 002°04'1514.6
2014-Sep-22 02:33N 51°06' E 001°45'1514.9
2014-Sep-22 01:34N 50°56' E 001°28'1615.0
2014-Sep-22 00:31N 50°41' E 001°18'1515.2
2014-Sep-21 23:31N 50°32' E 000°59'1415.0
2014-Sep-21 22:33N 50°27' E 000°38'1514.8
2014-Sep-21 21:33N 50°22' E 000°16'  

Dump ship's entire track history